sensor_id;sensor_type;location;lat;lon;timestamp;temperature;humidity
16958;DHT22;8595;52.542;11.974;2024-02-04T00:01:55;8.10;99.90
16958;DHT22;8595;52.542;11.974;2024-02-04T00:04:22;8.00;99.90
16958;DHT22;8595;52.542;11.974;2024-02-04T00:06:49;7.90;99.90
16958;DHT22;8595;52.542;11.974;2024-02-04T00:09:16;8.00;99.90
16958;DHT22;8595;52.542;11.974;2024-02-04T00:11:43;8.00;99.90
16958;DHT22;8595;52.542;11.974;2024-02-04T00:14:11;8.00;99.90
16958;DHT22;8595;52.542;11.974;2024-02-04T00:16:38;8.00;99.90
16958;DHT22;8595;52.542;11.974;2024-02-04T00:19:05;7.90;99.90
16958;DHT22;8595;52.542;11.974;2024-02-04T00:21:34;7.90;99.90
16958;DHT22;8595;52.542;11.974;2024-02-04T00:24:00;7.90;99.90
16958;DHT22;8595;52.542;11.974;2024-02-04T00:26:27;7.90;99.90
16958;DHT22;8595;52.542;11.974;2024-02-04T00:28:54;7.90;99.90
16958;DHT22;8595;52.542;11.974;2024-02-04T00:31:20;7.90;99.90
16958;DHT22;8595;52.542;11.974;2024-02-04T00:33:47;7.90;99.90
16958;DHT22;8595;52.542;11.974;2024-02-04T00:36:15;7.90;99.90
16958;DHT22;8595;52.542;11.974;2024-02-04T00:38:43;7.90;99.90
16958;DHT22;8595;52.542;11.974;2024-02-04T00:41:09;7.90;99.90
16958;DHT22;8595;52.542;11.974;2024-02-04T00:43:36;7.80;99.90
16958;DHT22;8595;52.542;11.974;2024-02-04T00:46:02;7.80;99.90
16958;DHT22;8595;52.542;11.974;2024-02-04T00:48:29;7.80;99.90
16958;DHT22;8595;52.542;11.974;2024-02-04T00:50:56;7.80;99.90
16958;DHT22;8595;52.542;11.974;2024-02-04T00:53:24;7.70;99.90
16958;DHT22;8595;52.542;11.974;2024-02-04T00:55:51;7.60;99.90
16958;DHT22;8595;52.542;11.974;2024-02-04T00:58:18;7.60;99.90
16958;DHT22;8595;52.542;11.974;2024-02-04T01:00:44;7.60;99.90
16958;DHT22;8595;52.542;11.974;2024-02-04T01:03:11;7.50;99.90
16958;DHT22;8595;52.542;11.974;2024-02-04T01:05:37;7.40;99.90
16958;DHT22;8595;52.542;11.974;2024-02-04T01:08:04;7.40;99.90
16958;DHT22;8595;52.542;11.974;2024-02-04T01:10:32;7.50;99.90
16958;DHT22;8595;52.542;11.974;2024-02-04T01:12:59;7.40;99.90
16958;DHT22;8595;52.542;11.974;2024-02-04T01:15:26;7.40;99.90
16958;DHT22;8595;52.542;11.974;2024-02-04T01:17:52;7.40;99.90
16958;DHT22;8595;52.542;11.974;2024-02-04T01:20:19;7.40;99.90
16958;DHT22;8595;52.542;11.974;2024-02-04T01:22:46;7.30;99.90
16958;DHT22;8595;52.542;11.974;2024-02-04T01:25:12;7.20;99.90
16958;DHT22;8595;52.542;11.974;2024-02-04T01:27:40;7.20;99.90
16958;DHT22;8595;52.542;11.974;2024-02-04T01:30:08;7.30;99.90
16958;DHT22;8595;52.542;11.974;2024-02-04T01:32:34;7.30;99.90
16958;DHT22;8595;52.542;11.974;2024-02-04T01:35:01;7.30;99.90
16958;DHT22;8595;52.542;11.974;2024-02-04T01:37:28;7.30;99.90
16958;DHT22;8595;52.542;11.974;2024-02-04T01:39:55;7.30;99.90
16958;DHT22;8595;52.542;11.974;2024-02-04T01:42:21;7.30;99.90
16958;DHT22;8595;52.542;11.974;2024-02-04T01:44:49;7.30;99.90
16958;DHT22;8595;52.542;11.974;2024-02-04T01:47:16;7.20;99.90
16958;DHT22;8595;52.542;11.974;2024-02-04T01:49:43;7.30;99.90
16958;DHT22;8595;52.542;11.974;2024-02-04T01:52:11;7.20;99.90
16958;DHT22;8595;52.542;11.974;2024-02-04T01:54:40;7.30;99.90
16958;DHT22;8595;52.542;11.974;2024-02-04T01:57:09;7.30;99.90
16958;DHT22;8595;52.542;11.974;2024-02-04T01:59:39;7.20;99.90
16958;DHT22;8595;52.542;11.974;2024-02-04T02:02:07;7.30;99.90
16958;DHT22;8595;52.542;11.974;2024-02-04T02:04:34;7.30;99.90
16958;DHT22;8595;52.542;11.974;2024-02-04T02:07:00;7.30;99.90
16958;DHT22;8595;52.542;11.974;2024-02-04T02:09:28;7.30;99.90
16958;DHT22;8595;52.542;11.974;2024-02-04T02:12:01;7.20;99.90
16958;DHT22;8595;52.542;11.974;2024-02-04T02:14:33;7.20;99.90
16958;DHT22;8595;52.542;11.974;2024-02-04T02:17:03;7.20;99.90
16958;DHT22;8595;52.542;11.974;2024-02-04T02:19:41;7.20;99.90
16958;DHT22;8595;52.542;11.974;2024-02-04T02:22:24;7.20;99.90
16958;DHT22;8595;52.542;11.974;2024-02-04T02:24:53;7.20;99.90
16958;DHT22;8595;52.542;11.974;2024-02-04T02:27:22;7.20;99.90
16958;DHT22;8595;52.542;11.974;2024-02-04T02:29:48;7.20;99.90
16958;DHT22;8595;52.542;11.974;2024-02-04T02:32:15;7.10;99.90
16958;DHT22;8595;52.542;11.974;2024-02-04T02:34:42;7.10;99.90
16958;DHT22;8595;52.542;11.974;2024-02-04T02:37:19;7.10;99.90
16958;DHT22;8595;52.542;11.974;2024-02-04T02:39:54;7.10;99.90
16958;DHT22;8595;52.542;11.974;2024-02-04T02:42:23;7.10;99.90
16958;DHT22;8595;52.542;11.974;2024-02-04T02:44:53;7.00;99.90
16958;DHT22;8595;52.542;11.974;2024-02-04T02:47:20;7.10;99.90
16958;DHT22;8595;52.542;11.974;2024-02-04T02:49:51;7.10;99.90
16958;DHT22;8595;52.542;11.974;2024-02-04T02:52:18;7.00;99.90
16958;DHT22;8595;52.542;11.974;2024-02-04T02:54:44;7.00;99.90
16958;DHT22;8595;52.542;11.974;2024-02-04T02:57:12;7.00;99.90
16958;DHT22;8595;52.542;11.974;2024-02-04T02:59:39;7.00;99.90
16958;DHT22;8595;52.542;11.974;2024-02-04T03:02:05;7.10;99.90
16958;DHT22;8595;52.542;11.974;2024-02-04T03:04:32;7.10;99.90
16958;DHT22;8595;52.542;11.974;2024-02-04T03:06:58;7.00;99.90
16958;DHT22;8595;52.542;11.974;2024-02-04T03:09:25;7.10;99.90
16958;DHT22;8595;52.542;11.974;2024-02-04T03:11:52;7.00;99.90
16958;DHT22;8595;52.542;11.974;2024-02-04T03:14:20;7.00;99.90
16958;DHT22;8595;52.542;11.974;2024-02-04T03:16:46;7.00;99.90
16958;DHT22;8595;52.542;11.974;2024-02-04T03:19:13;6.90;99.90
16958;DHT22;8595;52.542;11.974;2024-02-04T03:21:40;7.00;99.90
16958;DHT22;8595;52.542;11.974;2024-02-04T03:24:06;7.00;99.90
16958;DHT22;8595;52.542;11.974;2024-02-04T03:26:33;6.90;99.90
16958;DHT22;8595;52.542;11.974;2024-02-04T03:28:59;6.90;99.90
16958;DHT22;8595;52.542;11.974;2024-02-04T03:31:27;6.90;99.90
16958;DHT22;8595;52.542;11.974;2024-02-04T03:33:54;6.80;99.90
16958;DHT22;8595;52.542;11.974;2024-02-04T03:36:22;6.90;99.90
16958;DHT22;8595;52.542;11.974;2024-02-04T03:38:49;6.90;99.90
16958;DHT22;8595;52.542;11.974;2024-02-04T03:41:16;6.90;99.90
16958;DHT22;8595;52.542;11.974;2024-02-04T03:43:43;6.80;99.90
16958;DHT22;8595;52.542;11.974;2024-02-04T03:46:13;6.80;99.90
16958;DHT22;8595;52.542;11.974;2024-02-04T03:48:41;6.80;99.90
16958;DHT22;8595;52.542;11.974;2024-02-04T03:51:07;6.80;99.90
16958;DHT22;8595;52.542;11.974;2024-02-04T03:53:34;6.80;99.90
16958;DHT22;8595;52.542;11.974;2024-02-04T03:56:01;6.80;99.90
16958;DHT22;8595;52.542;11.974;2024-02-04T03:58:27;6.80;99.90
16958;DHT22;8595;52.542;11.974;2024-02-04T04:00:55;6.80;99.90
16958;DHT22;8595;52.542;11.974;2024-02-04T04:03:22;6.90;99.90
16958;DHT22;8595;52.542;11.974;2024-02-04T04:05:50;6.90;99.90
16958;DHT22;8595;52.542;11.974;2024-02-04T04:08:17;6.90;99.90
16958;DHT22;8595;52.542;11.974;2024-02-04T04:10:44;6.90;99.90
16958;DHT22;8595;52.542;11.974;2024-02-04T04:13:10;7.00;99.90
16958;DHT22;8595;52.542;11.974;2024-02-04T04:15:37;6.90;99.90
16958;DHT22;8595;52.542;11.974;2024-02-04T04:18:04;7.00;99.90
16958;DHT22;8595;52.542;11.974;2024-02-04T04:20:31;7.00;99.90
16958;DHT22;8595;52.542;11.974;2024-02-04T04:22:59;7.00;99.90
16958;DHT22;8595;52.542;11.974;2024-02-04T04:25:25;7.00;99.90
16958;DHT22;8595;52.542;11.974;2024-02-04T04:27:52;7.00;99.90
16958;DHT22;8595;52.542;11.974;2024-02-04T04:30:18;7.00;99.90
16958;DHT22;8595;52.542;11.974;2024-02-04T04:32:45;6.90;99.90
16958;DHT22;8595;52.542;11.974;2024-02-04T04:35:12;7.00;99.90
16958;DHT22;8595;52.542;11.974;2024-02-04T04:37:38;6.90;99.90
16958;DHT22;8595;52.542;11.974;2024-02-04T04:40:08;7.00;99.90
16958;DHT22;8595;52.542;11.974;2024-02-04T04:42:34;7.00;99.90
16958;DHT22;8595;52.542;11.974;2024-02-04T04:45:01;7.00;99.90
16958;DHT22;8595;52.542;11.974;2024-02-04T04:47:28;7.00;99.90
16958;DHT22;8595;52.542;11.974;2024-02-04T04:49:54;6.90;99.90
16958;DHT22;8595;52.542;11.974;2024-02-04T04:52:21;7.00;99.90
16958;DHT22;8595;52.542;11.974;2024-02-04T04:54:48;7.00;99.90
16958;DHT22;8595;52.542;11.974;2024-02-04T04:57:16;7.00;99.90
16958;DHT22;8595;52.542;11.974;2024-02-04T04:59:42;7.10;99.90
16958;DHT22;8595;52.542;11.974;2024-02-04T05:02:09;7.00;99.90
16958;DHT22;8595;52.542;11.974;2024-02-04T05:04:36;7.10;99.90
16958;DHT22;8595;52.542;11.974;2024-02-04T05:07:03;7.00;99.90
16958;DHT22;8595;52.542;11.974;2024-02-04T05:09:30;7.00;99.90
16958;DHT22;8595;52.542;11.974;2024-02-04T05:11:56;7.10;99.90
16958;DHT22;8595;52.542;11.974;2024-02-04T05:14:24;7.10;99.90
16958;DHT22;8595;52.542;11.974;2024-02-04T05:16:51;7.00;99.90
16958;DHT22;8595;52.542;11.974;2024-02-04T05:19:18;7.00;99.90
16958;DHT22;8595;52.542;11.974;2024-02-04T05:21:44;7.00;99.90
16958;DHT22;8595;52.542;11.974;2024-02-04T05:24:11;7.00;99.90
16958;DHT22;8595;52.542;11.974;2024-02-04T05:26:37;7.10;99.90
16958;DHT22;8595;52.542;11.974;2024-02-04T05:29:04;7.10;99.90
16958;DHT22;8595;52.542;11.974;2024-02-04T05:31:32;7.10;99.90
16958;DHT22;8595;52.542;11.974;2024-02-04T05:33:59;7.00;99.90
16958;DHT22;8595;52.542;11.974;2024-02-04T05:36:25;7.00;99.90
16958;DHT22;8595;52.542;11.974;2024-02-04T05:38:52;7.10;99.90
16958;DHT22;8595;52.542;11.974;2024-02-04T05:41:18;7.10;99.90
16958;DHT22;8595;52.542;11.974;2024-02-04T05:43:45;7.10;99.90
16958;DHT22;8595;52.542;11.974;2024-02-04T05:46:13;7.20;99.90
16958;DHT22;8595;52.542;11.974;2024-02-04T05:48:41;7.20;99.90
16958;DHT22;8595;52.542;11.974;2024-02-04T05:51:10;7.20;99.90
16958;DHT22;8595;52.542;11.974;2024-02-04T05:53:37;7.20;99.90
16958;DHT22;8595;52.542;11.974;2024-02-04T05:56:04;7.20;99.90
16958;DHT22;8595;52.542;11.974;2024-02-04T05:58:31;7.20;99.90
16958;DHT22;8595;52.542;11.974;2024-02-04T06:00:57;7.20;99.90
16958;DHT22;8595;52.542;11.974;2024-02-04T06:03:24;7.20;99.90
16958;DHT22;8595;52.542;11.974;2024-02-04T06:05:52;7.20;99.90
16958;DHT22;8595;52.542;11.974;2024-02-04T06:08:18;7.20;99.90
16958;DHT22;8595;52.542;11.974;2024-02-04T06:10:45;7.20;99.90
16958;DHT22;8595;52.542;11.974;2024-02-04T06:13:12;7.20;99.90
16958;DHT22;8595;52.542;11.974;2024-02-04T06:15:38;7.10;99.90
16958;DHT22;8595;52.542;11.974;2024-02-04T06:18:05;7.10;99.90
16958;DHT22;8595;52.542;11.974;2024-02-04T06:20:32;7.10;99.90
16958;DHT22;8595;52.542;11.974;2024-02-04T06:22:59;7.10;99.90
16958;DHT22;8595;52.542;11.974;2024-02-04T06:25:26;7.10;99.90
16958;DHT22;8595;52.542;11.974;2024-02-04T06:27:53;7.10;99.90
16958;DHT22;8595;52.542;11.974;2024-02-04T06:30:19;7.10;99.90
16958;DHT22;8595;52.542;11.974;2024-02-04T06:32:47;7.10;99.90
16958;DHT22;8595;52.542;11.974;2024-02-04T06:35:14;7.00;99.90
16958;DHT22;8595;52.542;11.974;2024-02-04T06:37:41;7.10;99.90
16958;DHT22;8595;52.542;11.974;2024-02-04T06:40:12;7.00;99.90
16958;DHT22;8595;52.542;11.974;2024-02-04T06:42:38;7.10;99.90
16958;DHT22;8595;52.542;11.974;2024-02-04T06:45:05;7.00;99.90
16958;DHT22;8595;52.542;11.974;2024-02-04T06:47:32;7.00;99.90
16958;DHT22;8595;52.542;11.974;2024-02-04T06:49:59;7.00;99.90
16958;DHT22;8595;52.542;11.974;2024-02-04T06:52:28;7.00;99.90
16958;DHT22;8595;52.542;11.974;2024-02-04T06:54:55;7.00;99.90
16958;DHT22;8595;52.542;11.974;2024-02-04T06:57:23;7.00;99.90
16958;DHT22;8595;52.542;11.974;2024-02-04T06:59:49;7.00;99.90
16958;DHT22;8595;52.542;11.974;2024-02-04T07:02:16;6.90;99.90
16958;DHT22;8595;52.542;11.974;2024-02-04T07:04:43;7.00;99.90
16958;DHT22;8595;52.542;11.974;2024-02-04T07:07:09;6.90;99.90
16958;DHT22;8595;52.542;11.974;2024-02-04T07:09:36;7.00;99.90
16958;DHT22;8595;52.542;11.974;2024-02-04T07:12:03;7.00;99.90
16958;DHT22;8595;52.542;11.974;2024-02-04T07:14:31;7.00;99.90
16958;DHT22;8595;52.542;11.974;2024-02-04T07:16:57;6.90;99.90
16958;DHT22;8595;52.542;11.974;2024-02-04T07:19:24;7.00;99.90
16958;DHT22;8595;52.542;11.974;2024-02-04T07:21:51;7.00;99.90
16958;DHT22;8595;52.542;11.974;2024-02-04T07:24:17;7.00;99.90
16958;DHT22;8595;52.542;11.974;2024-02-04T07:26:45;7.00;99.90
16958;DHT22;8595;52.542;11.974;2024-02-04T07:29:12;7.00;99.90
16958;DHT22;8595;52.542;11.974;2024-02-04T07:31:41;7.00;99.90
16958;DHT22;8595;52.542;11.974;2024-02-04T07:34:08;7.10;99.90
16958;DHT22;8595;52.542;11.974;2024-02-04T07:36:35;7.00;99.90
16958;DHT22;8595;52.542;11.974;2024-02-04T07:39:02;7.10;99.90
16958;DHT22;8595;52.542;11.974;2024-02-04T07:41:30;7.00;99.90
16958;DHT22;8595;52.542;11.974;2024-02-04T07:43:58;7.10;99.90
16958;DHT22;8595;52.542;11.974;2024-02-04T07:46:25;7.10;99.90
16958;DHT22;8595;52.542;11.974;2024-02-04T07:48:53;7.20;99.90
16958;DHT22;8595;52.542;11.974;2024-02-04T07:51:20;7.20;99.90
16958;DHT22;8595;52.542;11.974;2024-02-04T07:53:46;7.20;99.90
16958;DHT22;8595;52.542;11.974;2024-02-04T07:56:13;7.20;99.90
16958;DHT22;8595;52.542;11.974;2024-02-04T07:58:40;7.30;99.90
16958;DHT22;8595;52.542;11.974;2024-02-04T08:01:09;7.40;99.90
16958;DHT22;8595;52.542;11.974;2024-02-04T08:03:35;7.40;99.90
16958;DHT22;8595;52.542;11.974;2024-02-04T08:06:04;7.40;99.90
16958;DHT22;8595;52.542;11.974;2024-02-04T08:08:33;7.60;99.90
16958;DHT22;8595;52.542;11.974;2024-02-04T08:10:59;7.40;99.90
16958;DHT22;8595;52.542;11.974;2024-02-04T08:13:26;7.40;99.90
16958;DHT22;8595;52.542;11.974;2024-02-04T08:15:52;7.50;99.90
16958;DHT22;8595;52.542;11.974;2024-02-04T08:18:19;7.50;99.90
16958;DHT22;8595;52.542;11.974;2024-02-04T08:20:46;7.40;99.90
16958;DHT22;8595;52.542;11.974;2024-02-04T08:23:14;7.40;99.90
16958;DHT22;8595;52.542;11.974;2024-02-04T08:25:40;7.50;99.90
16958;DHT22;8595;52.542;11.974;2024-02-04T08:28:07;7.40;99.90
16958;DHT22;8595;52.542;11.974;2024-02-04T08:30:34;7.40;99.90
16958;DHT22;8595;52.542;11.974;2024-02-04T08:33:00;7.50;99.90
16958;DHT22;8595;52.542;11.974;2024-02-04T08:35:27;7.70;99.90
16958;DHT22;8595;52.542;11.974;2024-02-04T08:37:57;7.70;99.90
16958;DHT22;8595;52.542;11.974;2024-02-04T08:40:25;7.70;99.90
16958;DHT22;8595;52.542;11.974;2024-02-04T08:42:51;7.70;99.90
16958;DHT22;8595;52.542;11.974;2024-02-04T08:45:18;7.70;99.90
16958;DHT22;8595;52.542;11.974;2024-02-04T08:47:44;7.80;99.90
16958;DHT22;8595;52.542;11.974;2024-02-04T08:50:11;7.80;99.90
16958;DHT22;8595;52.542;11.974;2024-02-04T08:52:38;7.80;99.90
16958;DHT22;8595;52.542;11.974;2024-02-04T08:55:05;7.80;99.90
16958;DHT22;8595;52.542;11.974;2024-02-04T08:57:33;7.80;99.90
16958;DHT22;8595;52.542;11.974;2024-02-04T09:00:00;7.80;99.90
16958;DHT22;8595;52.542;11.974;2024-02-04T09:02:27;7.80;99.90
16958;DHT22;8595;52.542;11.974;2024-02-04T09:04:53;7.80;99.90
16958;DHT22;8595;52.542;11.974;2024-02-04T09:07:20;7.80;99.90
16958;DHT22;8595;52.542;11.974;2024-02-04T09:09:47;8.00;99.90
16958;DHT22;8595;52.542;11.974;2024-02-04T09:12:14;8.00;99.90
16958;DHT22;8595;52.542;11.974;2024-02-04T09:14:42;8.00;99.90
16958;DHT22;8595;52.542;11.974;2024-02-04T09:17:08;8.10;99.90
16958;DHT22;8595;52.542;11.974;2024-02-04T09:19:35;8.00;99.90
16958;DHT22;8595;52.542;11.974;2024-02-04T09:22:02;8.00;99.90
16958;DHT22;8595;52.542;11.974;2024-02-04T09:24:29;8.10;99.90
16958;DHT22;8595;52.542;11.974;2024-02-04T09:26:56;8.10;99.90
16958;DHT22;8595;52.542;11.974;2024-02-04T09:29:22;8.10;99.90
16958;DHT22;8595;52.542;11.974;2024-02-04T09:31:51;8.20;99.90
16958;DHT22;8595;52.542;11.974;2024-02-04T09:34:19;8.20;99.90
16958;DHT22;8595;52.542;11.974;2024-02-04T09:36:45;8.30;99.90
16958;DHT22;8595;52.542;11.974;2024-02-04T09:39:12;8.30;99.90
16958;DHT22;8595;52.542;11.974;2024-02-04T09:41:39;8.30;99.90
16958;DHT22;8595;52.542;11.974;2024-02-04T09:44:06;8.40;99.90
16958;DHT22;8595;52.542;11.974;2024-02-04T09:46:34;8.50;99.90
16958;DHT22;8595;52.542;11.974;2024-02-04T09:49:02;8.40;99.90
16958;DHT22;8595;52.542;11.974;2024-02-04T09:51:30;8.60;99.90
16958;DHT22;8595;52.542;11.974;2024-02-04T09:54:01;8.60;99.90
16958;DHT22;8595;52.542;11.974;2024-02-04T09:56:30;8.60;99.90
16958;DHT22;8595;52.542;11.974;2024-02-04T09:58:58;8.60;99.90
16958;DHT22;8595;52.542;11.974;2024-02-04T10:01:26;8.60;99.90
16958;DHT22;8595;52.542;11.974;2024-02-04T10:03:52;8.60;99.90
16958;DHT22;8595;52.542;11.974;2024-02-04T10:06:20;8.60;99.90
16958;DHT22;8595;52.542;11.974;2024-02-04T10:08:47;8.50;99.90
16958;DHT22;8595;52.542;11.974;2024-02-04T10:11:14;8.60;99.90
16958;DHT22;8595;52.542;11.974;2024-02-04T10:13:44;8.60;99.90
16958;DHT22;8595;52.542;11.974;2024-02-04T10:16:12;8.60;99.90
16958;DHT22;8595;52.542;11.974;2024-02-04T10:18:41;8.70;99.90
16958;DHT22;8595;52.542;11.974;2024-02-04T10:21:15;8.60;99.90
16958;DHT22;8595;52.542;11.974;2024-02-04T10:23:43;8.60;99.90
16958;DHT22;8595;52.542;11.974;2024-02-04T10:26:10;8.50;99.90
16958;DHT22;8595;52.542;11.974;2024-02-04T10:28:36;8.50;99.90
16958;DHT22;8595;52.542;11.974;2024-02-04T10:31:03;8.50;99.90
16958;DHT22;8595;52.542;11.974;2024-02-04T10:33:30;8.60;99.90
16958;DHT22;8595;52.542;11.974;2024-02-04T10:35:57;8.60;99.90
16958;DHT22;8595;52.542;11.974;2024-02-04T10:38:24;8.60;99.90
16958;DHT22;8595;52.542;11.974;2024-02-04T10:40:53;8.60;99.90
16958;DHT22;8595;52.542;11.974;2024-02-04T10:43:21;8.60;99.90
16958;DHT22;8595;52.542;11.974;2024-02-04T10:45:52;8.60;99.90
16958;DHT22;8595;52.542;11.974;2024-02-04T10:48:24;8.50;99.90
16958;DHT22;8595;52.542;11.974;2024-02-04T10:50:55;8.50;99.90
16958;DHT22;8595;52.542;11.974;2024-02-04T10:53:22;8.60;99.90
16958;DHT22;8595;52.542;11.974;2024-02-04T10:55:54;8.60;99.90
16958;DHT22;8595;52.542;11.974;2024-02-04T10:58:26;8.50;99.90
16958;DHT22;8595;52.542;11.974;2024-02-04T11:00:53;8.40;99.90
16958;DHT22;8595;52.542;11.974;2024-02-04T11:03:21;8.50;99.90
16958;DHT22;8595;52.542;11.974;2024-02-04T11:05:52;8.40;99.90
16958;DHT22;8595;52.542;11.974;2024-02-04T11:08:20;8.40;99.90
16958;DHT22;8595;52.542;11.974;2024-02-04T11:10:47;8.40;99.90
16958;DHT22;8595;52.542;11.974;2024-02-04T11:13:16;8.40;99.90
16958;DHT22;8595;52.542;11.974;2024-02-04T11:15:43;8.50;99.90
16958;DHT22;8595;52.542;11.974;2024-02-04T11:18:39;8.50;99.90
16958;DHT22;8595;52.542;11.974;2024-02-04T11:21:20;8.50;99.90
16958;DHT22;8595;52.542;11.974;2024-02-04T11:24:01;8.60;99.90
16958;DHT22;8595;52.542;11.974;2024-02-04T11:26:32;8.60;99.90
16958;DHT22;8595;52.542;11.974;2024-02-04T11:29:02;8.60;99.90
16958;DHT22;8595;52.542;11.974;2024-02-04T11:31:31;8.70;99.90
16958;DHT22;8595;52.542;11.974;2024-02-04T11:33:57;8.70;99.90
16958;DHT22;8595;52.542;11.974;2024-02-04T11:36:25;8.60;99.90
16958;DHT22;8595;52.542;11.974;2024-02-04T11:38:52;8.60;99.90
16958;DHT22;8595;52.542;11.974;2024-02-04T11:41:22;8.70;99.90
16958;DHT22;8595;52.542;11.974;2024-02-04T11:43:52;8.70;99.90
16958;DHT22;8595;52.542;11.974;2024-02-04T11:46:21;8.60;99.90
16958;DHT22;8595;52.542;11.974;2024-02-04T11:48:52;8.70;99.90
16958;DHT22;8595;52.542;11.974;2024-02-04T11:51:21;8.80;99.90
16958;DHT22;8595;52.542;11.974;2024-02-04T11:53:50;8.90;99.90
16958;DHT22;8595;52.542;11.974;2024-02-04T11:56:17;8.90;99.90
16958;DHT22;8595;52.542;11.974;2024-02-04T11:58:44;8.90;99.90
16958;DHT22;8595;52.542;11.974;2024-02-04T12:01:14;8.90;99.90
16958;DHT22;8595;52.542;11.974;2024-02-04T12:03:42;8.90;99.90
16958;DHT22;8595;52.542;11.974;2024-02-04T12:06:09;8.90;99.90
16958;DHT22;8595;52.542;11.974;2024-02-04T12:08:42;8.90;99.90
16958;DHT22;8595;52.542;11.974;2024-02-04T12:11:08;8.80;99.90
16958;DHT22;8595;52.542;11.974;2024-02-04T12:13:35;8.90;99.90
16958;DHT22;8595;52.542;11.974;2024-02-04T12:16:05;8.90;99.90
16958;DHT22;8595;52.542;11.974;2024-02-04T12:18:34;8.80;99.90
16958;DHT22;8595;52.542;11.974;2024-02-04T12:21:02;8.80;99.90
16958;DHT22;8595;52.542;11.974;2024-02-04T12:23:29;8.80;99.90
16958;DHT22;8595;52.542;11.974;2024-02-04T12:25:56;8.80;99.90
16958;DHT22;8595;52.542;11.974;2024-02-04T12:28:24;8.80;99.90
16958;DHT22;8595;52.542;11.974;2024-02-04T12:30:54;8.90;99.90
16958;DHT22;8595;52.542;11.974;2024-02-04T12:33:21;8.90;99.90
16958;DHT22;8595;52.542;11.974;2024-02-04T12:35:50;8.90;99.90
16958;DHT22;8595;52.542;11.974;2024-02-04T12:38:19;8.90;99.90
16958;DHT22;8595;52.542;11.974;2024-02-04T12:40:45;8.70;99.90
16958;DHT22;8595;52.542;11.974;2024-02-04T12:43:12;8.70;99.90
16958;DHT22;8595;52.542;11.974;2024-02-04T12:45:39;8.70;99.90
16958;DHT22;8595;52.542;11.974;2024-02-04T12:48:06;8.70;99.90
16958;DHT22;8595;52.542;11.974;2024-02-04T12:50:36;8.70;99.90
16958;DHT22;8595;52.542;11.974;2024-02-04T12:53:04;8.60;99.90
16958;DHT22;8595;52.542;11.974;2024-02-04T12:55:33;8.70;99.90
16958;DHT22;8595;52.542;11.974;2024-02-04T12:58:04;8.60;99.90
16958;DHT22;8595;52.542;11.974;2024-02-04T13:00:32;8.70;99.90
16958;DHT22;8595;52.542;11.974;2024-02-04T13:02:58;8.80;99.90
16958;DHT22;8595;52.542;11.974;2024-02-04T13:05:25;8.80;99.90
16958;DHT22;8595;52.542;11.974;2024-02-04T13:07:54;8.80;99.90
16958;DHT22;8595;52.542;11.974;2024-02-04T13:10:23;8.90;99.90
16958;DHT22;8595;52.542;11.974;2024-02-04T13:13:01;8.80;99.90
16958;DHT22;8595;52.542;11.974;2024-02-04T13:15:28;8.70;99.90
16958;DHT22;8595;52.542;11.974;2024-02-04T13:17:55;8.80;99.90
16958;DHT22;8595;52.542;11.974;2024-02-04T13:20:22;8.80;99.90
16958;DHT22;8595;52.542;11.974;2024-02-04T13:22:49;8.90;99.90
16958;DHT22;8595;52.542;11.974;2024-02-04T13:25:19;8.90;99.90
16958;DHT22;8595;52.542;11.974;2024-02-04T13:27:45;8.90;99.90
16958;DHT22;8595;52.542;11.974;2024-02-04T13:30:14;8.90;99.90
16958;DHT22;8595;52.542;11.974;2024-02-04T13:32:41;9.00;99.90
16958;DHT22;8595;52.542;11.974;2024-02-04T13:35:08;8.90;99.90
16958;DHT22;8595;52.542;11.974;2024-02-04T13:37:36;8.90;99.90
16958;DHT22;8595;52.542;11.974;2024-02-04T13:40:03;8.80;99.90
16958;DHT22;8595;52.542;11.974;2024-02-04T13:42:31;8.80;99.90
16958;DHT22;8595;52.542;11.974;2024-02-04T13:44:58;8.90;99.90
16958;DHT22;8595;52.542;11.974;2024-02-04T13:47:26;8.90;99.90
16958;DHT22;8595;52.542;11.974;2024-02-04T13:49:53;8.90;99.90
16958;DHT22;8595;52.542;11.974;2024-02-04T13:52:20;8.90;99.90
16958;DHT22;8595;52.542;11.974;2024-02-04T13:54:47;9.00;99.90
16958;DHT22;8595;52.542;11.974;2024-02-04T13:57:13;9.00;99.90
16958;DHT22;8595;52.542;11.974;2024-02-04T13:59:40;9.10;99.90
16958;DHT22;8595;52.542;11.974;2024-02-04T14:02:07;9.00;99.90
16958;DHT22;8595;52.542;11.974;2024-02-04T14:04:35;9.00;99.90
16958;DHT22;8595;52.542;11.974;2024-02-04T14:07:02;9.00;99.90
16958;DHT22;8595;52.542;11.974;2024-02-04T14:09:29;9.00;99.90
16958;DHT22;8595;52.542;11.974;2024-02-04T14:11:56;9.00;99.90
16958;DHT22;8595;52.542;11.974;2024-02-04T14:14:23;9.00;99.90
16958;DHT22;8595;52.542;11.974;2024-02-04T14:16:49;9.00;99.90
16958;DHT22;8595;52.542;11.974;2024-02-04T14:19:16;8.90;99.90
16958;DHT22;8595;52.542;11.974;2024-02-04T14:21:44;9.00;99.90
16958;DHT22;8595;52.542;11.974;2024-02-04T14:24:11;9.00;99.90
16958;DHT22;8595;52.542;11.974;2024-02-04T14:26:38;9.00;99.90
16958;DHT22;8595;52.542;11.974;2024-02-04T14:29:06;9.00;99.90
16958;DHT22;8595;52.542;11.974;2024-02-04T14:31:33;9.00;99.90
16958;DHT22;8595;52.542;11.974;2024-02-04T14:34:00;9.00;99.90
16958;DHT22;8595;52.542;11.974;2024-02-04T14:36:26;8.90;99.90
16958;DHT22;8595;52.542;11.974;2024-02-04T14:38:55;8.90;99.90
16958;DHT22;8595;52.542;11.974;2024-02-04T14:41:22;8.90;99.90
16958;DHT22;8595;52.542;11.974;2024-02-04T14:43:49;8.90;99.90
16958;DHT22;8595;52.542;11.974;2024-02-04T14:46:15;8.90;99.90
16958;DHT22;8595;52.542;11.974;2024-02-04T14:48:55;8.90;99.90
16958;DHT22;8595;52.542;11.974;2024-02-04T14:51:22;8.90;99.90
16958;DHT22;8595;52.542;11.974;2024-02-04T14:53:49;8.90;99.90
16958;DHT22;8595;52.542;11.974;2024-02-04T14:56:17;8.90;99.90
16958;DHT22;8595;52.542;11.974;2024-02-04T14:58:46;9.00;99.90
16958;DHT22;8595;52.542;11.974;2024-02-04T15:01:13;9.00;99.90
16958;DHT22;8595;52.542;11.974;2024-02-04T15:03:39;8.80;99.90
16958;DHT22;8595;52.542;11.974;2024-02-04T15:06:06;8.90;99.90
16958;DHT22;8595;52.542;11.974;2024-02-04T15:08:33;8.90;99.90
16958;DHT22;8595;52.542;11.974;2024-02-04T15:10:59;8.90;99.90
16958;DHT22;8595;52.542;11.974;2024-02-04T15:13:28;8.90;99.90
16958;DHT22;8595;52.542;11.974;2024-02-04T15:15:56;8.80;99.90
16958;DHT22;8595;52.542;11.974;2024-02-04T15:18:23;8.90;99.90
16958;DHT22;8595;52.542;11.974;2024-02-04T15:20:50;8.80;99.90
16958;DHT22;8595;52.542;11.974;2024-02-04T15:23:17;8.80;99.90
16958;DHT22;8595;52.542;11.974;2024-02-04T15:25:44;8.90;99.90
16958;DHT22;8595;52.542;11.974;2024-02-04T15:28:13;8.80;99.90
16958;DHT22;8595;52.542;11.974;2024-02-04T15:30:43;8.90;99.90
16958;DHT22;8595;52.542;11.974;2024-02-04T15:33:10;8.80;99.90
16958;DHT22;8595;52.542;11.974;2024-02-04T15:35:37;8.80;99.90
16958;DHT22;8595;52.542;11.974;2024-02-04T15:38:04;8.80;99.90
16958;DHT22;8595;52.542;11.974;2024-02-04T15:40:31;8.80;99.90
16958;DHT22;8595;52.542;11.974;2024-02-04T15:42:58;8.90;99.90
16958;DHT22;8595;52.542;11.974;2024-02-04T15:45:26;8.90;99.90
16958;DHT22;8595;52.542;11.974;2024-02-04T15:47:54;8.90;99.90